Time;durP1;ratioP1;P1;durP2;ratioP2;P2;SDS_P1;SDS_P2;PMS_P1;PMS_P2;Temp;Humidity;BMP_temperature;BMP_pressure;BME280_temperature;BME280_humidity;BME280_pressure;Samples;Min_cycle;Max_cycle;Signal;HPM_P1;HPM_P2
2020/12/13 00:00:32;;;;;;;12.18;7.38;;;3.10;99.90;;;;;;5061775;28;20048;-49
2020/12/13 00:02:59;;;;;;;12.13;7.13;;;3.20;99.90;;;;;;5072194;28;20048;-48
2020/12/13 00:05:28;;;;;;;13.45;6.88;;;3.20;99.90;;;;;;5067016;28;20057;-48
2020/12/13 00:07:55;;;;;;;11.18;7.53;;;3.20;99.90;;;;;;5072085;28;20059;-49
2020/12/13 00:10:22;;;;;;;12.10;7.30;;;3.20;99.90;;;;;;5069540;28;20051;-49
2020/12/13 00:12:49;;;;;;;38.83;15.82;;;3.20;99.90;;;;;;5054547;28;20053;-48
2020/12/13 00:15:17;;;;;;;30.13;12.90;;;3.20;99.90;;;;;;5067515;28;20063;-48
2020/12/13 00:17:45;;;;;;;28.52;10.88;;;3.20;99.90;;;;;;5072799;28;20070;-48
2020/12/13 00:20:12;;;;;;;26.65;14.18;;;3.10;99.90;;;;;;5069062;28;20480;-50
2020/12/13 00:22:38;;;;;;;26.40;14.65;;;3.10;99.90;;;;;;5071333;28;20053;-49
2020/12/13 00:25:05;;;;;;;29.05;14.93;;;3.00;99.90;;;;;;5074054;28;20492;-48
2020/12/13 00:27:31;;;;;;;26.48;14.57;;;3.00;99.90;;;;;;5068265;28;20547;-49
2020/12/13 00:29:58;;;;;;;24.90;11.85;;;2.90;99.90;;;;;;5073114;28;20520;-49
2020/12/13 00:32:29;;;;;;;21.85;12.80;;;2.80;99.90;;;;;;5067996;28;20048;-49
2020/12/13 00:34:56;;;;;;;19.60;9.50;;;2.70;99.90;;;;;;5071611;28;20098;-48
2020/12/13 00:37:24;;;;;;;20.50;9.98;;;2.70;99.90;;;;;;5066751;28;20061;-48
2020/12/13 00:39:51;;;;;;;19.88;11.60;;;2.70;99.90;;;;;;5071977;28;20485;-48
2020/12/13 00:42:18;;;;;;;20.15;11.13;;;2.70;99.90;;;;;;5068300;28;20048;-48
2020/12/13 00:44:44;;;;;;;24.52;13.57;;;2.70;99.90;;;;;;5068830;28;20040;-49
2020/12/13 00:47:11;;;;;;;24.05;12.88;;;2.60;99.90;;;;;;5061822;28;20045;-48
2020/12/13 00:49:38;;;;;;;36.65;18.65;;;2.50;99.90;;;;;;5062203;28;20064;-49
2020/12/13 00:52:05;;;;;;;29.58;17.05;;;2.40;99.90;;;;;;5079448;28;20051;-49
2020/12/13 00:54:32;;;;;;;27.45;12.32;;;2.30;99.90;;;;;;5069907;28;20437;-48
2020/12/13 00:56:59;;;;;;;17.98;11.38;;;2.30;99.90;;;;;;5071130;28;20405;-49
2020/12/13 00:59:26;;;;;;;15.80;8.40;;;2.40;99.90;;;;;;5066638;28;20053;-48
2020/12/13 01:01:53;;;;;;;12.15;6.90;;;2.50;99.90;;;;;;5072668;28;20500;-49
2020/12/13 01:04:20;;;;;;;9.93;6.25;;;2.50;99.90;;;;;;5069773;28;20049;-49
2020/12/13 01:06:47;;;;;;;10.75;6.07;;;2.50;99.90;;;;;;5063442;28;20067;-48
2020/12/13 01:09:13;;;;;;;7.55;5.07;;;2.60;99.90;;;;;;5070345;28;20040;-48
2020/12/13 01:11:40;;;;;;;9.35;5.13;;;2.60;99.90;;;;;;5066883;28;20053;-49
2020/12/13 01:14:06;;;;;;;10.35;5.55;;;2.70;99.90;;;;;;5071005;28;20056;-48
2020/12/13 01:16:33;;;;;;;9.43;3.45;;;2.70;99.90;;;;;;5068799;28;20087;-48
2020/12/13 01:19:01;;;;;;;4.90;2.05;;;2.70;99.90;;;;;;5060631;28;20068;-48
2020/12/13 01:21:29;;;;;;;3.15;2.08;;;2.80;99.90;;;;;;5065300;28;20478;-48
2020/12/13 01:23:57;;;;;;;3.78;1.50;;;2.90;99.90;;;;;;5071596;28;20048;-49
2020/12/13 01:26:25;;;;;;;4.40;2.05;;;2.90;99.90;;;;;;5067747;28;20055;-48
2020/12/13 01:28:52;;;;;;;4.00;1.40;;;3.00;99.90;;;;;;5069876;28;20045;-48
2020/12/13 01:31:21;;;;;;;4.78;1.90;;;3.00;99.90;;;;;;5072970;28;20440;-48
2020/12/13 01:33:50;;;;;;;7.03;3.72;;;3.00;99.90;;;;;;5076247;28;20071;-48
2020/12/13 01:36:22;;;;;;;6.68;3.08;;;2.90;99.90;;;;;;5069152;28;20063;-49
2020/12/13 01:38:50;;;;;;;6.97;3.28;;;2.90;99.90;;;;;;5068985;28;20052;-48
2020/12/13 01:41:19;;;;;;;7.18;3.40;;;2.80;99.90;;;;;;5071538;28;20059;-49
2020/12/13 01:44:03;;;;;;;6.25;3.53;;;2.80;99.90;;;;;;5065368;28;20136;-48
2020/12/13 01:46:31;;;;;;;6.82;3.47;;;2.80;99.90;;;;;;5068323;28;20041;-48
2020/12/13 01:49:02;;;;;;;7.22;3.63;;;2.70;99.90;;;;;;5070260;28;20102;-48
2020/12/13 01:54:26;;;;;;;16.42;7.45;;;2.70;99.90;;;;;;5074875;28;20393;-48
2020/12/13 01:56:53;;;;;;;14.18;7.35;;;2.70;99.90;;;;;;5070658;28;20386;-49
2020/12/13 01:59:24;;;;;;;11.02;6.53;;;2.70;99.90;;;;;;5073307;28;20041;-48
2020/12/13 02:02:03;;;;;;;11.50;7.13;;;2.60;99.90;;;;;;5070988;28;20072;-48
2020/12/13 02:04:34;;;;;;;12.23;7.82;;;2.50;99.90;;;;;;5067815;28;20049;-48
2020/12/13 02:07:02;;;;;;;13.68;7.93;;;2.50;99.90;;;;;;5063651;28;20045;-48
2020/12/13 02:09:29;;;;;;;13.30;8.27;;;2.50;99.90;;;;;;5065559;28;20040;-49
2020/12/13 02:11:56;;;;;;;13.77;6.88;;;2.50;99.90;;;;;;5075207;28;20497;-48
2020/12/13 02:14:22;;;;;;;16.23;8.10;;;2.50;99.90;;;;;;5070734;28;20044;-49
2020/12/13 02:16:51;;;;;;;14.15;9.85;;;2.40;99.90;;;;;;5063051;28;20049;-48
2020/12/13 02:19:18;;;;;;;15.20;8.48;;;2.40;99.90;;;;;;5071363;28;20131;-48
2020/12/13 02:21:49;;;;;;;17.15;8.32;;;2.30;99.90;;;;;;5072748;28;20060;-49
2020/12/13 02:24:16;;;;;;;5.30;3.67;;;2.30;99.90;;;;;;5074201;28;20041;-48
2020/12/13 02:26:45;;;;;;;6.93;3.92;;;2.30;99.90;;;;;;5069169;28;20051;-49
2020/12/13 02:29:12;;;;;;;5.70;2.55;;;2.40;99.90;;;;;;5062602;28;20532;-48
2020/12/13 02:31:39;;;;;;;5.18;1.77;;;2.40;99.90;;;;;;5065498;28;20053;-49
2020/12/13 02:34:06;;;;;;;2.65;1.83;;;2.50;99.90;;;;;;5073861;28;20044;-49
2020/12/13 02:36:33;;;;;;;3.50;1.65;;;2.50;99.90;;;;;;5068694;28;20063;-49
2020/12/13 02:39:02;;;;;;;3.78;1.80;;;2.50;99.90;;;;;;5064107;28;20052;-49
2020/12/13 02:41:28;;;;;;;3.58;1.92;;;2.60;99.90;;;;;;5070678;28;20459;-48
2020/12/13 02:43:55;;;;;;;3.88;2.70;;;2.50;99.90;;;;;;5072819;28;20106;-49
2020/12/13 02:46:22;;;;;;;5.78;3.25;;;2.50;99.90;;;;;;5074129;28;20496;-49
2020/12/13 02:48:49;;;;;;;6.05;3.92;;;2.40;99.90;;;;;;5071014;28;20128;-49
2020/12/13 02:51:16;;;;;;;8.77;5.78;;;2.40;99.90;;;;;;5067395;28;20041;-48
2020/12/13 02:53:42;;;;;;;13.23;7.82;;;2.30;99.90;;;;;;5073299;28;20060;-49
2020/12/13 02:56:09;;;;;;;14.95;8.48;;;2.20;99.90;;;;;;5071180;28;20143;-49
2020/12/13 02:58:35;;;;;;;8.30;5.00;;;2.10;99.90;;;;;;5069913;28;20052;-49
2020/12/13 03:01:02;;;;;;;15.50;7.47;;;2.10;99.90;;;;;;5070666;28;20057;-48
2020/12/13 03:03:29;;;;;;;8.68;5.43;;;2.20;99.90;;;;;;5068574;28;20403;-48
2020/12/13 03:05:55;;;;;;;11.48;5.25;;;2.20;99.90;;;;;;5081431;28;20037;-49
2020/12/13 03:08:22;;;;;;;8.38;5.05;;;2.20;99.90;;;;;;5069025;28;20040;-49
2020/12/13 03:10:49;;;;;;;5.72;2.67;;;2.20;99.90;;;;;;5075023;28;20056;-48
2020/12/13 03:13:15;;;;;;;3.17;1.20;;;2.20;99.90;;;;;;5067693;28;20052;-48
2020/12/13 03:15:42;;;;;;;1.88;1.17;;;2.20;99.90;;;;;;5062700;28;20057;-48
2020/12/13 03:18:09;;;;;;;6.65;2.38;;;2.30;99.90;;;;;;5072461;28;20057;-48
2020/12/13 03:20:35;;;;;;;5.35;2.30;;;2.20;99.90;;;;;;5070647;28;20044;-49
2020/12/13 03:23:02;;;;;;;4.65;1.88;;;2.20;99.90;;;;;;5073982;28;20036;-48
2020/12/13 03:25:28;;;;;;;4.72;2.38;;;2.20;99.90;;;;;;5070512;28;20045;-49
2020/12/13 03:27:54;;;;;;;3.72;2.03;;;2.10;99.90;;;;;;5056006;28;20045;-48
2020/12/13 03:30:21;;;;;;;2.92;1.88;;;2.10;99.90;;;;;;5069196;28;20051;-49
2020/12/13 03:32:48;;;;;;;8.68;3.45;;;2.10;99.90;;;;;;5078137;28;20048;-48
2020/12/13 03:35:14;;;;;;;3.42;2.28;;;2.10;99.90;;;;;;5071458;28;20045;-49
2020/12/13 03:37:41;;;;;;;2.78;2.13;;;2.10;99.90;;;;;;5069060;28;20054;-49
2020/12/13 03:40:07;;;;;;;4.97;3.50;;;2.10;99.90;;;;;;5072046;28;20051;-49
2020/12/13 03:42:34;;;;;;;3.33;2.10;;;2.10;99.90;;;;;;5072265;28;20037;-49
2020/12/13 03:45:00;;;;;;;4.88;1.67;;;2.10;99.90;;;;;;5069258;28;20045;-48
2020/12/13 03:47:27;;;;;;;8.25;5.13;;;2.10;99.90;;;;;;5068165;28;20064;-49
2020/12/13 03:49:53;;;;;;;15.82;7.05;;;2.10;99.90;;;;;;5070804;28;20045;-48
2020/12/13 03:52:19;;;;;;;13.43;7.70;;;2.00;99.90;;;;;;5067851;28;20067;-50
2020/12/13 03:54:46;;;;;;;8.73;4.65;;;1.80;99.90;;;;;;5071536;28;20444;-49
2020/12/13 03:57:13;;;;;;;5.63;2.90;;;1.80;99.90;;;;;;5069635;28;20052;-49
2020/12/13 03:59:39;;;;;;;1.80;1.40;;;1.80;99.90;;;;;;5061407;28;20048;-48
2020/12/13 04:02:06;;;;;;;4.47;1.65;;;1.80;99.90;;;;;;5073067;28;20387;-48
2020/12/13 04:04:32;;;;;;;4.03;1.67;;;1.80;99.90;;;;;;5069959;28;20121;-49
2020/12/13 04:06:59;;;;;;;4.95;1.25;;;1.80;99.90;;;;;;5071180;28;20051;-47
2020/12/13 04:09:25;;;;;;;1.95;0.90;;;1.80;99.90;;;;;;5068658;28;20047;-48
2020/12/13 04:11:52;;;;;;;1.88;1.27;;;1.80;99.90;;;;;;5072167;28;20040;-49
2020/12/13 04:14:19;;;;;;;3.03;1.10;;;1.80;99.90;;;;;;5067537;28;20119;-48
2020/12/13 04:16:46;;;;;;;3.13;2.00;;;1.80;99.90;;;;;;5071607;28;20410;-48
2020/12/13 04:19:12;;;;;;;16.45;3.88;;;1.70;99.90;;;;;;5070408;28;20045;-48
2020/12/13 04:21:39;;;;;;;13.15;3.15;;;1.60;99.90;;;;;;5065912;28;20059;-49
2020/12/13 04:24:05;;;;;;;11.73;3.03;;;1.50;99.90;;;;;;5060790;28;20052;-48
2020/12/13 04:26:32;;;;;;;58.75;4.63;;;1.60;99.90;;;;;;5060190;28;20040;-49
2020/12/13 04:28:59;;;;;;;43.50;3.78;;;1.60;99.90;;;;;;5058787;28;20045;-48
2020/12/13 04:31:25;;;;;;;4.30;1.48;;;1.50;99.90;;;;;;5066967;28;20398;-48
2020/12/13 04:33:52;;;;;;;3.50;1.45;;;1.50;99.90;;;;;;5062459;28;20051;-49
2020/12/13 04:36:18;;;;;;;4.70;1.55;;;1.60;99.90;;;;;;5066692;28;20063;-48
2020/12/13 04:38:45;;;;;;;3.05;1.50;;;1.60;99.90;;;;;;5072009;28;20070;-48
2020/12/13 04:41:12;;;;;;;15.15;2.53;;;1.60;99.90;;;;;;5069032;28;20048;-49
2020/12/13 04:43:39;;;;;;;43.35;2.67;;;1.50;99.90;;;;;;5065477;28;20903;-48
2020/12/13 04:46:09;;;;;;;4.97;1.85;;;1.50;99.90;;;;;;5068499;28;20051;-48
2020/12/13 04:48:37;;;;;;;36.67;3.08;;;1.40;99.90;;;;;;5070219;28;20052;-48
2020/12/13 04:51:04;;;;;;;21.98;2.05;;;1.40;99.90;;;;;;5069150;28;20473;-48
2020/12/13 04:53:33;;;;;;;2.55;1.40;;;1.30;99.90;;;;;;5068286;28;20041;-48
2020/12/13 04:56:00;;;;;;;3.88;1.92;;;1.30;99.90;;;;;;5067266;28;20055;-49
2020/12/13 04:58:30;;;;;;;4.20;1.83;;;1.40;99.90;;;;;;5066999;28;20048;-48
2020/12/13 05:00:59;;;;;;;2.38;1.42;;;1.40;99.90;;;;;;5071540;28;20056;-49
2020/12/13 05:03:27;;;;;;;3.70;1.80;;;1.40;99.90;;;;;;5068492;28;20829;-48
2020/12/13 05:06:01;;;;;;;8.85;2.08;;;1.40;99.90;;;;;;5068715;28;21747;-48
2020/12/13 05:08:29;;;;;;;6.97;2.83;;;1.40;99.90;;;;;;5071765;28;20109;-48
2020/12/13 05:10:57;;;;;;;28.95;2.67;;;1.30;99.90;;;;;;5067425;28;20045;-49
2020/12/13 05:13:24;;;;;;;32.80;2.63;;;1.30;99.90;;;;;;5072107;28;20397;-48
2020/12/13 05:15:52;;;;;;;187.95;8.27;;;1.10;99.90;;;;;;5068477;28;20060;-49
2020/12/13 05:18:19;;;;;;;3.30;1.52;;;1.00;99.90;;;;;;5070488;28;20048;-48
2020/12/13 05:20:45;;;;;;;20.40;1.77;;;1.00;99.90;;;;;;5067739;28;20051;-48
2020/12/13 05:23:12;;;;;;;2.33;1.30;;;1.00;99.90;;;;;;5070401;28;20045;-48
2020/12/13 05:25:39;;;;;;;2.00;1.35;;;1.10;99.90;;;;;;5067392;28;20061;-48
2020/12/13 05:28:11;;;;;;;2.28;0.80;;;1.00;99.90;;;;;;5073715;28;20048;-48
2020/12/13 05:30:47;;;;;;;3.13;1.00;;;1.00;99.90;;;;;;5078342;28;20059;-49
2020/12/13 05:33:23;;;;;;;4.43;1.63;;;1.10;99.90;;;;;;5081191;28;20044;-49
2020/12/13 05:35:53;;;;;;;3.15;1.27;;;1.00;99.90;;;;;;5077418;28;20049;-49
2020/12/13 05:38:21;;;;;;;3.38;1.20;;;1.00;99.90;;;;;;5072813;28;20571;-48
2020/12/13 05:40:49;;;;;;;1.88;1.10;;;1.00;99.90;;;;;;5069846;28;20502;-48
2020/12/13 05:43:21;;;;;;;2.10;0.90;;;0.90;99.90;;;;;;5076519;28;20131;-48
2020/12/13 05:51:39;;;;;;;1.75;0.60;;;0.90;99.90;;;;;;5073206;28;20049;-49
2020/12/13 05:54:10;;;;;;;0.90;0.60;;;1.00;99.90;;;;;;5071200;28;20051;-48
2020/12/13 05:56:38;;;;;;;1.52;0.73;;;1.00;99.90;;;;;;5073753;28;20067;-48
2020/12/13 05:59:06;;;;;;;1.80;1.00;;;1.00;99.90;;;;;;5077889;28;20075;-48
2020/12/13 06:01:35;;;;;;;0.90;0.60;;;0.90;99.90;;;;;;5068363;28;20099;-50
2020/12/13 06:04:13;;;;;;;1.75;0.55;;;0.90;99.90;;;;;;5068859;28;20044;-48
2020/12/13 06:06:44;;;;;;;1.85;0.50;;;0.90;99.90;;;;;;5074655;28;20067;-48
2020/12/13 06:09:14;;;;;;;0.50;0.50;;;0.90;99.90;;;;;;5074249;28;20041;-48
2020/12/13 06:11:45;;;;;;;7.45;0.60;;;0.90;99.90;;;;;;5077050;28;20123;-48
2020/12/13 06:14:17;;;;;;;126.13;4.75;;;0.90;99.90;;;;;;5073654;28;20048;-48
2020/12/13 06:16:44;;;;;;;7.60;1.05;;;0.70;99.90;;;;;;5070525;28;20459;-48
2020/12/13 06:19:14;;;;;;;8.55;1.35;;;0.60;99.90;;;;;;5075574;28;20044;-48
2020/12/13 06:21:43;;;;;;;80.75;2.25;;;0.50;99.90;;;;;;5075420;28;20142;-48
2020/12/13 06:24:09;;;;;;;7.30;1.00;;;0.40;99.90;;;;;;5077753;28;20056;-48
2020/12/13 06:26:37;;;;;;;86.00;3.35;;;0.40;99.90;;;;;;5074640;28;20060;-48
2020/12/13 06:29:05;;;;;;;17.20;3.35;;;0.30;99.90;;;;;;5076396;28;20044;-48
2020/12/13 06:31:33;;;;;;;158.93;7.95;;;0.20;99.90;;;;;;5073431;28;20409;-48
2020/12/13 06:34:01;;;;;;;126.90;3.95;;;0.10;99.90;;;;;;5059994;28;20118;-49
2020/12/13 06:36:30;;;;;;;50.38;1.80;;;0.10;99.90;;;;;;5073516;28;20055;-48
2020/12/13 06:38:57;;;;;;;38.72;1.80;;;0.20;99.90;;;;;;5072942;28;20052;-49
2020/12/13 06:41:30;;;;;;;3.28;1.10;;;0.20;99.90;;;;;;5070650;28;20059;-48
2020/12/13 06:44:06;;;;;;;16.00;1.90;;;0.30;99.90;;;;;;5068760;28;20041;-49
2020/12/13 06:46:39;;;;;;;14.02;1.80;;;0.20;99.90;;;;;;5057745;28;20132;-49
2020/12/13 06:49:05;;;;;;;7.25;1.10;;;0.20;99.90;;;;;;5070429;28;20133;-48
2020/12/13 06:51:35;;;;;;;130.77;5.30;;;0.20;99.90;;;;;;5066976;28;20055;-48
2020/12/13 06:54:05;;;;;;;1.13;0.60;;;0.20;99.90;;;;;;5068998;28;20044;-48
2020/12/13 06:56:33;;;;;;;2.25;0.70;;;0.10;99.90;;;;;;5072730;28;20051;-48
2020/12/13 06:59:01;;;;;;;5.22;1.33;;;0.20;99.90;;;;;;5072273;28;20071;-48
2020/12/13 07:01:44;;;;;;;1.38;0.90;;;0.20;99.90;;;;;;5060761;28;20059;-48
2020/12/13 07:04:45;;;;;;;2.15;0.40;;;0.30;99.90;;;;;;5070878;28;20045;-48
2020/12/13 07:07:24;;;;;;;4.07;3.80;;;0.40;99.90;;;;;;5069668;28;20057;-48
2020/12/13 07:09:57;;;;;;;2.92;0.98;;;0.60;99.90;;;;;;5069411;28;20139;-49
2020/12/13 07:12:24;;;;;;;1.23;1.10;;;0.70;99.90;;;;;;5070120;28;20131;-48
2020/12/13 07:14:51;;;;;;;2.35;1.85;;;0.80;99.90;;;;;;5062430;28;20378;-48
2020/12/13 07:17:19;;;;;;;1.52;1.00;;;0.70;99.90;;;;;;5061575;28;20045;-49
2020/12/13 07:19:48;;;;;;;3.63;2.08;;;0.70;99.90;;;;;;5066786;28;20106;-48
2020/12/13 07:22:16;;;;;;;2.72;0.60;;;0.70;99.90;;;;;;5070904;28;20037;-48
2020/12/13 07:24:43;;;;;;;2.15;0.60;;;0.80;99.90;;;;;;5069347;28;20052;-49
2020/12/13 07:27:10;;;;;;;2.47;0.40;;;1.00;99.90;;;;;;5055283;28;20040;-48
2020/12/13 07:29:38;;;;;;;2.28;1.00;;;1.10;99.90;;;;;;5070442;28;20400;-49
2020/12/13 07:32:05;;;;;;;9.38;5.80;;;1.00;99.90;;;;;;5070099;28;20075;-48
2020/12/13 07:34:33;;;;;;;7.43;4.15;;;0.90;99.90;;;;;;5073018;28;20082;-49
2020/12/13 07:37:00;;;;;;;13.63;7.70;;;1.00;99.90;;;;;;5062929;28;20051;-49
2020/12/13 07:39:30;;;;;;;10.57;5.50;;;0.80;99.90;;;;;;5072189;28;20055;-49
2020/12/13 07:41:57;;;;;;;13.10;7.35;;;0.60;99.90;;;;;;5070464;28;20067;-49
2020/12/13 07:44:25;;;;;;;2.03;0.90;;;0.60;99.90;;;;;;5077098;28;20048;-48
2020/12/13 07:46:51;;;;;;;1.80;0.80;;;0.60;99.90;;;;;;5068768;28;20135;-48
2020/12/13 07:49:20;;;;;;;1.50;0.43;;;0.80;99.90;;;;;;5072007;28;20048;-48
2020/12/13 07:51:51;;;;;;;2.88;1.40;;;1.10;99.90;;;;;;5068451;28;20045;-48
2020/12/13 07:54:23;;;;;;;0.80;0.63;;;1.20;99.90;;;;;;5071968;28;20056;-49
2020/12/13 07:56:52;;;;;;;25.85;20.42;;;1.30;99.90;;;;;;5069484;28;20056;-49
2020/12/13 07:59:21;;;;;;;1.08;0.98;;;1.30;99.90;;;;;;5064925;28;20057;-49
2020/12/13 08:01:50;;;;;;;10.30;1.10;;;1.30;99.90;;;;;;5053049;28;20056;-48
2020/12/13 08:04:34;;;;;;;1.27;0.70;;;1.40;99.90;;;;;;5068949;28;20045;-48
2020/12/13 08:07:01;;;;;;;;;;;1.50;99.90;;;;;;5072540;28;20048;-48
2020/12/13 08:09:28;;;;;;;9.10;6.40;;;1.40;99.90;;;;;;5068631;28;19924;-48
2020/12/13 08:11:55;;;;;;;10.35;5.63;;;1.20;99.90;;;;;;5071414;28;20036;-48
2020/12/13 08:14:23;;;;;;;22.50;12.95;;;1.20;99.90;;;;;;5076580;28;20051;-48
2020/12/13 08:16:54;;;;;;;13.90;7.80;;;1.10;99.90;;;;;;5080464;28;20410;-48
2020/12/13 08:19:40;;;;;;;5.10;3.58;;;1.00;99.90;;;;;;5073331;28;20132;-48
2020/12/13 08:22:13;;;;;;;4.50;2.17;;;0.90;99.90;;;;;;5068488;28;20051;-50
2020/12/13 08:24:41;;;;;;;0.50;0.50;;;0.90;99.90;;;;;;5081770;28;20462;-48
2020/12/13 08:27:11;;;;;;;0.63;0.57;;;1.20;99.90;;;;;;5070922;28;20044;-48
2020/12/13 08:29:38;;;;;;;8.05;3.88;;;1.50;99.90;;;;;;5074838;28;20439;-48
2020/12/13 08:32:22;;;;;;;1.00;0.60;;;1.70;99.90;;;;;;5070511;28;20604;-48
2020/12/13 08:34:50;;;;;;;0.85;0.60;;;1.70;99.90;;;;;;5070133;28;20048;-48
2020/12/13 08:37:23;;;;;;;13.45;5.97;;;2.10;99.90;;;;;;5072440;28;20143;-48
2020/12/13 08:39:51;;;;;;;18.63;11.05;;;2.00;99.90;;;;;;5067966;28;20055;-48
2020/12/13 08:42:24;;;;;;;8.55;6.03;;;1.90;99.90;;;;;;5062401;28;20040;-48
2020/12/13 08:44:52;;;;;;;7.07;4.97;;;1.80;99.90;;;;;;5068138;28;20041;-48
2020/12/13 08:47:20;;;;;;;9.63;6.50;;;1.80;99.90;;;;;;5061608;28;20052;-48
2020/12/13 08:49:49;;;;;;;7.72;4.75;;;1.80;99.90;;;;;;5069255;28;20094;-48
2020/12/13 08:52:21;;;;;;;5.03;2.65;;;2.00;99.90;;;;;;5074188;28;20041;-49
2020/12/13 08:55:00;;;;;;;4.03;3.30;;;2.10;99.90;;;;;;5072313;28;20378;-48
2020/12/13 08:57:48;;;;;;;11.60;4.88;;;2.30;99.90;;;;;;5070421;28;20052;-50
2020/12/13 09:00:18;;;;;;;2.72;1.60;;;2.30;99.90;;;;;;5055503;28;20045;-49
2020/12/13 09:03:00;;;;;;;1.33;1.00;;;2.50;99.90;;;;;;5066827;28;20135;-51
2020/12/13 09:05:29;;;;;;;1.42;0.85;;;2.80;99.90;;;;;;5065972;28;20524;-51
2020/12/13 09:07:56;;;;;;;1.38;0.80;;;3.00;99.90;;;;;;5071563;28;20044;-51
2020/12/13 09:10:24;;;;;;;3.28;0.93;;;3.30;99.90;;;;;;5072479;28;20048;-52
2020/12/13 09:12:52;;;;;;;11.38;6.18;;;3.30;99.90;;;;;;5072124;28;20056;-50
2020/12/13 09:15:21;;;;;;;6.75;2.78;;;3.30;99.90;;;;;;5068216;28;20135;-50
2020/12/13 09:18:02;;;;;;;2.47;1.23;;;3.40;99.90;;;;;;5070902;28;20040;-51
2020/12/13 09:20:36;;;;;;;2.95;0.90;;;3.40;99.90;;;;;;5063142;28;20049;-51
2020/12/13 09:23:10;;;;;;;1.60;0.80;;;3.50;99.90;;;;;;5060899;28;20463;-53
2020/12/13 09:25:44;;;;;;;2.05;0.80;;;3.70;99.90;;;;;;5072052;28;20088;-52
2020/12/13 09:28:13;;;;;;;1.92;0.60;;;3.80;99.90;;;;;;5066439;28;20056;-50
2020/12/13 09:30:43;;;;;;;0.70;0.65;;;3.90;99.90;;;;;;5062163;28;20132;-52
2020/12/13 09:33:10;;;;;;;2.45;0.60;;;4.10;99.90;;;;;;5067300;28;20048;-49
2020/12/13 09:35:37;;;;;;;1.48;1.30;;;4.60;99.90;;;;;;5069773;28;20393;-53
2020/12/13 09:38:08;;;;;;;7.25;4.03;;;4.90;99.90;;;;;;5070145;28;20052;-50
2020/12/13 09:40:36;;;;;;;5.80;3.25;;;5.20;99.90;;;;;;5066650;28;20132;-50
2020/12/13 09:43:03;;;;;;;4.80;3.95;;;5.40;99.90;;;;;;5071978;28;20041;-51
2020/12/13 09:45:30;;;;;;;3.42;3.22;;;5.30;99.90;;;;;;5069373;28;20048;-52
2020/12/13 09:47:57;;;;;;;2.05;1.70;;;5.10;99.90;;;;;;5055828;28;20135;-52
2020/12/13 09:50:28;;;;;;;4.95;2.45;;;5.00;99.90;;;;;;5062899;28;20045;-49
2020/12/13 09:52:54;;;;;;;2.60;1.50;;;5.30;99.90;;;;;;5071519;28;20481;-52
2020/12/13 09:55:21;;;;;;;11.50;6.82;;;5.50;99.90;;;;;;5066746;28;20048;-51
2020/12/13 09:57:48;;;;;;;9.38;4.45;;;5.50;99.90;;;;;;5070540;28;20457;-49
2020/12/13 10:00:14;;;;;;;5.35;3.30;;;5.40;99.90;;;;;;5067494;28;20466;-49
2020/12/13 10:02:42;;;;;;;6.63;5.55;;;5.70;99.90;;;;;;5067582;28;20421;-48
2020/12/13 10:05:20;;;;;;;7.15;5.05;;;5.70;99.90;;;;;;5059694;28;20048;-49
2020/12/13 10:10:14;;;;;;;15.20;10.43;;;6.40;99.90;;;;;;5070609;28;20048;-50
2020/12/13 10:12:42;;;;;;;7.25;4.78;;;6.20;99.90;;;;;;5070035;28;20056;-49
2020/12/13 10:15:10;;;;;;;8.50;4.55;;;6.20;99.90;;;;;;5064647;28;20552;-48
2020/12/13 10:17:40;;;;;;;4.22;2.47;;;6.40;99.90;;;;;;5070095;28;20080;-49
2020/12/13 10:20:08;;;;;;;5.20;3.38;;;6.40;99.90;;;;;;5082294;28;20047;-49
2020/12/13 10:22:36;;;;;;;4.72;2.53;;;6.40;99.90;;;;;;5076189;28;20048;-49
2020/12/13 10:25:03;;;;;;;2.13;1.80;;;6.30;99.90;;;;;;5075839;28;20402;-49
2020/12/13 10:27:29;;;;;;;17.23;7.38;;;6.60;99.90;;;;;;5073863;28;20055;-49
2020/12/13 10:29:55;;;;;;;12.55;5.13;;;6.70;99.90;;;;;;5073174;28;20041;-48
2020/12/13 10:32:23;;;;;;;2.13;1.15;;;6.80;99.90;;;;;;5071126;28;20048;-48
2020/12/13 10:34:51;;;;;;;15.05;7.05;;;7.00;99.90;;;;;;5072716;28;20102;-49
2020/12/13 10:37:18;;;;;;;5.43;3.33;;;7.10;99.90;;;;;;5071546;28;20417;-49
2020/12/13 10:39:45;;;;;;;3.72;1.00;;;7.20;99.90;;;;;;5066626;28;20139;-49
2020/12/13 10:42:11;;;;;;;10.65;6.10;;;7.30;99.90;;;;;;5076498;28;20478;-49
2020/12/13 10:44:38;;;;;;;20.02;12.27;;;7.40;99.90;;;;;;5069153;28;20044;-49
2020/12/13 10:47:04;;;;;;;5.75;1.42;;;7.40;99.90;;;;;;5080398;28;20518;-49
2020/12/13 10:49:31;;;;;;;8.45;3.78;;;7.80;99.90;;;;;;5070091;28;20487;-50
2020/12/13 10:51:57;;;;;;;4.65;2.90;;;7.70;99.90;;;;;;5077379;28;20036;-50
2020/12/13 10:54:25;;;;;;;6.57;5.32;;;7.80;99.90;;;;;;5076197;28;20087;-49
2020/12/13 10:56:51;;;;;;;5.43;3.13;;;8.20;99.90;;;;;;5082541;28;20064;-49
2020/12/13 10:59:18;;;;;;;7.28;4.78;;;8.30;99.90;;;;;;5071357;28;20053;-49
2020/12/13 11:01:48;;;;;;;16.48;8.63;;;8.20;99.90;;;;;;5074175;28;20059;-49
2020/12/13 11:04:18;;;;;;;9.13;5.47;;;8.40;99.90;;;;;;5078631;28;20082;-50
2020/12/13 11:06:47;;;;;;;1.17;1.08;;;8.60;99.90;;;;;;5070154;28;20045;-49
2020/12/13 11:09:14;;;;;;;2.08;1.40;;;8.60;99.90;;;;;;5068706;28;20048;-49
2020/12/13 11:11:41;;;;;;;1.85;1.17;;;8.70;99.90;;;;;;5070820;28;20044;-50
2020/12/13 11:14:07;;;;;;;1.08;0.90;;;9.10;99.90;;;;;;5071589;28;20373;-50
2020/12/13 11:16:34;;;;;;;2.85;0.70;;;9.50;99.90;;;;;;5071098;28;20063;-51
2020/12/13 11:19:01;;;;;;;2.00;1.23;;;9.80;99.90;;;;;;5073082;28;20044;-53
2020/12/13 11:21:28;;;;;;;1.30;0.70;;;9.80;99.90;;;;;;5069357;28;20511;-50
2020/12/13 11:23:54;;;;;;;1.63;1.20;;;10.10;99.90;;;;;;5070187;28;20052;-51
2020/12/13 11:26:21;;;;;;;1.17;0.90;;;9.90;99.90;;;;;;5073259;28;20045;-49
2020/12/13 11:28:47;;;;;;;2.85;1.40;;;9.90;99.90;;;;;;5069578;28;20053;-50
2020/12/13 11:31:17;;;;;;;1.05;0.90;;;10.50;99.90;;;;;;5066778;28;20390;-53
2020/12/13 11:33:44;;;;;;;1.20;0.85;;;10.70;99.90;;;;;;5071220;28;20048;-51
2020/12/13 11:36:11;;;;;;;0.80;0.70;;;10.60;99.90;;;;;;5075795;28;20403;-49
2020/12/13 11:38:37;;;;;;;2.80;0.70;;;10.70;99.90;;;;;;5071348;28;20053;-51
2020/12/13 11:41:04;;;;;;;1.40;0.98;;;10.80;99.90;;;;;;5069285;28;20049;-53
2020/12/13 11:43:30;;;;;;;3.60;0.82;;;11.10;99.90;;;;;;5067371;28;20053;-53
2020/12/13 11:45:57;;;;;;;1.20;0.73;;;11.10;99.90;;;;;;5071655;28;20067;-53
2020/12/13 11:48:24;;;;;;;0.30;0.20;;;11.20;99.90;;;;;;5077826;28;20044;-49
2020/12/13 11:50:52;;;;;;;0.95;0.20;;;11.20;99.90;;;;;;5080643;28;20050;-49
2020/12/13 11:53:18;;;;;;;0.60;0.20;;;11.40;99.90;;;;;;5058614;28;20056;-50
2020/12/13 11:55:46;;;;;;;11.40;4.47;;;11.40;99.90;;;;;;5063817;28;20044;-49
2020/12/13 11:58:13;;;;;;;1.35;0.50;;;11.50;99.90;;;;;;5073258;28;20142;-49
2020/12/13 12:00:40;;;;;;;0.90;0.60;;;11.60;99.90;;;;;;5069050;28;20136;-50
2020/12/13 12:03:07;;;;;;;0.80;0.60;;;11.90;99.90;;;;;;5060540;28;20049;-49
2020/12/13 12:05:33;;;;;;;0.80;0.70;;;12.00;99.90;;;;;;5068055;28;20048;-52
2020/12/13 12:08:00;;;;;;;0.50;0.40;;;12.20;99.90;;;;;;5061676;28;20070;-50
2020/12/13 12:10:26;;;;;;;0.38;0.30;;;12.10;97.50;;;;;;5062430;28;20120;-49
2020/12/13 12:12:53;;;;;;;0.40;0.20;;;12.00;98.40;;;;;;5060920;28;20625;-50
2020/12/13 12:15:19;;;;;;;0.00;0.00;;;12.10;95.20;;;;;;5070168;28;20059;-50
2020/12/13 12:17:45;;;;;;;0.10;0.10;;;12.40;97.60;;;;;;5065297;28;20041;-49
2020/12/13 12:20:16;;;;;;;0.00;0.00;;;12.40;96.70;;;;;;5070645;28;20052;-49
2020/12/13 12:22:45;;;;;;;0.00;0.00;;;12.20;88.60;;;;;;5067020;28;20633;-49
2020/12/13 12:25:12;;;;;;;0.20;0.10;;;12.10;94.10;;;;;;5070732;28;20493;-50
2020/12/13 12:27:40;;;;;;;0.50;0.40;;;12.00;90.40;;;;;;5066143;28;20072;-49
2020/12/13 12:30:07;;;;;;;1.75;0.30;;;12.40;90.40;;;;;;5066609;28;20060;-50
2020/12/13 12:32:33;;;;;;;0.30;0.20;;;12.30;93.90;;;;;;5068869;28;20044;-50
2020/12/13 12:35:00;;;;;;;0.20;0.20;;;12.50;94.70;;;;;;5068835;28;20130;-49
2020/12/13 12:37:26;;;;;;;0.40;0.30;;;12.60;93.90;;;;;;5059005;28;20717;-49
2020/12/13 12:39:53;;;;;;;2.33;1.25;;;12.50;91.50;;;;;;5069546;28;20048;-49
2020/12/13 12:42:19;;;;;;;0.60;0.40;;;12.80;95.70;;;;;;5070192;28;20495;-49
2020/12/13 12:44:46;;;;;;;0.45;0.30;;;12.90;95.60;;;;;;5066852;28;20051;-50
2020/12/13 12:47:12;;;;;;;0.17;0.08;;;12.90;96.10;;;;;;5073549;28;20047;-50
2020/12/13 12:49:40;;;;;;;0.00;0.00;;;12.80;94.10;;;;;;5068956;28;20087;-50
2020/12/13 12:52:08;;;;;;;0.00;0.00;;;12.80;93.70;;;;;;5063761;28;20059;-50
2020/12/13 12:54:36;;;;;;;2.47;1.73;;;12.60;92.30;;;;;;5062583;28;20413;-50
2020/12/13 12:57:03;;;;;;;0.52;0.30;;;12.60;91.70;;;;;;5068488;28;20562;-50
2020/12/13 12:59:55;;;;;;;0.28;0.20;;;12.70;93.00;;;;;;5069606;28;20056;-49
2020/12/13 13:02:23;;;;;;;0.03;0.03;;;12.80;95.90;;;;;;5069048;28;20044;-49
2020/12/13 13:05:36;;;;;;;0.10;0.10;;;12.90;93.70;;;;;;5066429;28;20044;-50
2020/12/13 13:07:42;;;;;;;0.00;0.00;;;12.70;91.60;;;;;;5056841;28;20486;-50
2020/12/13 13:12:36;;;;;;;0.60;0.40;;;12.90;95.30;;;;;;5071090;28;20048;-51